createdAt,value
2022-09-06T00:02:09.571Z,19.16
2022-09-06T00:04:37.336Z,19.10
2022-09-06T00:07:05.575Z,19.08
2022-09-06T00:09:33.283Z,19.04
2022-09-06T00:12:02.351Z,19.00
2022-09-06T00:14:30.057Z,18.96
2022-09-06T00:16:57.937Z,18.92
2022-09-06T00:19:25.799Z,18.88
2022-09-06T00:21:53.452Z,18.83
2022-09-06T00:24:21.165Z,18.79
2022-09-06T00:26:48.910Z,18.74
2022-09-06T00:29:17.964Z,18.71
2022-09-06T00:31:45.738Z,18.65
2022-09-06T00:34:13.433Z,18.62
2022-09-06T00:36:41.072Z,18.59
2022-09-06T00:39:08.905Z,18.57
2022-09-06T00:41:36.584Z,18.53
2022-09-06T00:44:04.692Z,18.52
2022-09-06T00:46:34.734Z,18.48
2022-09-06T00:49:06.353Z,18.47
2022-09-06T00:51:36.446Z,18.46
2022-09-06T00:54:06.331Z,18.44
2022-09-06T00:56:36.402Z,18.43
2022-09-06T00:59:05.208Z,18.40
2022-09-06T01:01:34.420Z,18.38
2022-09-06T01:04:04.182Z,18.36
2022-09-06T01:06:43.642Z,18.33
2022-09-06T01:09:21.397Z,18.30
2022-09-06T01:11:59.881Z,18.29
2022-09-06T01:14:41.688Z,18.26
2022-09-06T01:17:20.807Z,18.25
2022-09-06T01:20:21.332Z,18.23
2022-09-06T01:23:16.827Z,18.19
2022-09-06T01:25:56.700Z,18.16
2022-09-06T01:28:32.231Z,18.12
2022-09-06T01:31:08.980Z,18.10
2022-09-06T01:33:42.345Z,18.07
2022-09-06T01:36:15.827Z,18.05
2022-09-06T01:38:43.659Z,18.01
2022-09-06T01:41:12.188Z,17.98
2022-09-06T01:43:46.107Z,17.97
2022-09-06T01:46:20.926Z,17.93
2022-09-06T01:49:04.951Z,17.91
2022-09-06T01:51:40.827Z,17.89
2022-09-06T01:54:24.983Z,17.87
2022-09-06T01:57:08.933Z,17.84
2022-09-06T01:59:51.746Z,17.82
2022-09-06T02:02:26.221Z,17.78
2022-09-06T02:05:02.428Z,17.76
2022-09-06T02:07:33.582Z,17.74
2022-09-06T02:10:08.024Z,17.73
2022-09-06T02:12:40.328Z,17.72
2022-09-06T02:15:12.518Z,17.71
2022-09-06T02:17:46.451Z,17.69
2022-09-06T02:20:18.437Z,17.67
2022-09-06T02:22:49.163Z,17.64
2022-09-06T02:25:24.809Z,17.62
2022-09-06T02:27:53.328Z,17.58
2022-09-06T02:30:22.595Z,17.55
2022-09-06T02:32:57.115Z,17.49
2022-09-06T02:35:25.354Z,17.45
2022-09-06T02:37:53.250Z,17.42
2022-09-06T02:40:21.571Z,17.38
2022-09-06T02:42:49.590Z,17.35
2022-09-06T02:45:17.441Z,17.31
2022-09-06T02:47:46.511Z,17.27
2022-09-06T02:50:15.403Z,17.24
2022-09-06T02:52:43.218Z,17.20
2022-09-06T02:55:11.276Z,17.18
2022-09-06T02:57:39.553Z,17.14
2022-09-06T03:00:08.449Z,17.11
2022-09-06T03:02:36.311Z,17.08
2022-09-06T03:05:06.059Z,17.06
2022-09-06T03:07:33.786Z,17.02
2022-09-06T03:10:01.759Z,17.01
2022-09-06T03:12:29.702Z,16.98
2022-09-06T03:14:57.886Z,16.96
2022-09-06T03:17:25.962Z,16.93
2022-09-06T03:19:53.713Z,16.90
2022-09-06T03:22:22.692Z,16.88
2022-09-06T03:24:50.396Z,16.87
2022-09-06T03:27:18.172Z,16.83
2022-09-06T03:29:45.834Z,16.81
2022-09-06T03:32:13.455Z,16.77
2022-09-06T03:34:41.130Z,16.74
2022-09-06T03:37:08.907Z,16.72
2022-09-06T03:39:38.024Z,16.70
2022-09-06T03:42:05.832Z,16.67
2022-09-06T03:44:34.033Z,16.65
2022-09-06T03:47:01.682Z,16.64
2022-09-06T03:49:29.325Z,16.62
2022-09-06T03:51:57.205Z,16.59
2022-09-06T03:54:25.572Z,16.56
2022-09-06T03:56:54.625Z,16.55
2022-09-06T03:59:22.254Z,16.53
2022-09-06T04:01:49.872Z,16.51
2022-09-06T04:04:17.496Z,16.49
2022-09-06T04:06:45.139Z,16.47
2022-09-06T04:09:12.835Z,16.45
2022-09-06T04:11:42.917Z,16.43
2022-09-06T04:14:13.805Z,16.40
2022-09-06T04:16:41.524Z,16.39
2022-09-06T04:19:09.286Z,16.36
2022-09-06T04:21:36.924Z,16.34
2022-09-06T04:24:04.547Z,16.32
2022-09-06T04:26:32.191Z,16.29
2022-09-06T04:28:59.822Z,16.27
2022-09-06T04:31:29.167Z,16.25
2022-09-06T04:33:56.818Z,16.24
2022-09-06T04:36:24.455Z,16.22
2022-09-06T04:38:52.266Z,16.21
2022-09-06T04:41:19.891Z,16.19
2022-09-06T04:43:47.759Z,16.18
2022-09-06T04:46:23.103Z,16.16
2022-09-06T04:48:53.051Z,16.19
2022-09-06T04:51:21.459Z,16.18
2022-09-06T04:53:49.532Z,16.17
2022-09-06T04:56:19.369Z,16.18
2022-09-06T04:58:48.717Z,16.17
2022-09-06T05:01:17.274Z,16.18
2022-09-06T05:03:45.030Z,16.18
2022-09-06T05:06:19.247Z,16.18
2022-09-06T05:08:46.885Z,16.18
2022-09-06T05:11:14.839Z,16.20
2022-09-06T05:13:42.569Z,16.20
2022-09-06T05:16:10.655Z,16.22
2022-09-06T05:18:38.451Z,16.23
2022-09-06T05:21:07.619Z,16.23
2022-09-06T05:23:36.973Z,16.22
2022-09-06T05:26:05.097Z,16.22
2022-09-06T05:28:32.758Z,16.22
2022-09-06T05:31:10.719Z,16.24
2022-09-06T05:33:38.407Z,16.24
2022-09-06T05:36:07.343Z,16.24
2022-09-06T05:38:36.338Z,16.26
2022-09-06T05:41:03.964Z,16.27
2022-09-06T05:43:31.929Z,16.26
2022-09-06T05:46:00.124Z,16.30
2022-09-06T05:48:28.000Z,16.29
2022-09-06T05:51:02.656Z,16.31
2022-09-06T05:53:36.456Z,16.34
2022-09-06T05:56:05.393Z,16.36
2022-09-06T05:58:33.235Z,16.39
2022-09-06T06:01:08.948Z,16.42
2022-09-06T06:03:36.602Z,16.45
2022-09-06T06:06:04.260Z,16.48
2022-09-06T06:08:31.908Z,16.50
2022-09-06T06:11:01.420Z,16.53
2022-09-06T06:13:31.729Z,16.59
2022-09-06T06:15:59.658Z,16.62
2022-09-06T06:18:27.337Z,16.67
2022-09-06T06:21:08.501Z,16.73
2022-09-06T06:23:36.211Z,16.74
2022-09-06T06:26:05.421Z,16.78
2022-09-06T06:28:33.389Z,16.82
2022-09-06T06:31:01.033Z,16.88
2022-09-06T06:33:29.078Z,16.93
2022-09-06T06:36:01.321Z,16.96
2022-09-06T06:38:32.796Z,16.99
2022-09-06T06:41:05.849Z,17.02
2022-09-06T06:43:37.870Z,17.05
2022-09-06T06:46:06.644Z,17.08
2022-09-06T06:48:34.382Z,17.08
2022-09-06T06:51:02.286Z,17.12
2022-09-06T06:53:30.161Z,17.17
2022-09-06T06:55:57.790Z,17.22
2022-09-06T06:58:25.774Z,17.27
2022-09-06T07:00:54.867Z,17.35
2022-09-06T07:03:22.544Z,17.39
2022-09-06T07:08:38.276Z,17.48
2022-09-06T07:11:07.426Z,17.53
2022-09-06T07:13:35.212Z,17.55
2022-09-06T07:16:13.311Z,17.60
2022-09-06T07:18:42.264Z,17.65
2022-09-06T07:24:07.012Z,17.74
2022-09-06T07:26:36.620Z,17.75
2022-09-06T07:29:06.143Z,17.79
2022-09-06T07:34:25.195Z,17.86
2022-09-06T07:36:53.335Z,17.86
2022-09-06T07:39:21.102Z,17.88
2022-09-06T07:41:48.895Z,17.90
2022-09-06T07:44:16.648Z,17.93
2022-09-06T07:46:45.822Z,17.97
2022-09-06T07:49:13.612Z,17.99
2022-09-06T07:51:41.241Z,18.06
2022-09-06T07:56:56.474Z,18.25
2022-09-06T07:59:24.090Z,18.31
2022-09-06T08:01:53.324Z,18.36
2022-09-06T08:04:21.017Z,18.42
2022-09-06T08:09:39.772Z,18.60
2022-09-06T08:12:08.224Z,18.68
2022-09-06T08:14:36.540Z,18.76
2022-09-06T08:17:05.560Z,18.88
2022-09-06T08:19:34.406Z,19.02
2022-09-06T08:22:02.039Z,19.14
2022-09-06T08:24:29.692Z,19.24
2022-09-06T08:26:57.306Z,19.31
2022-09-06T08:29:25.972Z,19.35
2022-09-06T08:31:53.899Z,19.46
2022-09-06T08:34:22.931Z,19.53
2022-09-06T08:36:50.585Z,19.56
2022-09-06T08:39:18.630Z,19.62
2022-09-06T08:41:51.325Z,19.66
2022-09-06T08:47:12.543Z,19.71
2022-09-06T08:49:44.997Z,19.77
2022-09-06T08:52:35.264Z,19.83
2022-09-06T08:55:22.659Z,19.89
2022-09-06T08:58:02.145Z,19.94
2022-09-06T09:00:30.697Z,19.96
2022-09-06T09:03:12.051Z,19.99
2022-09-06T09:05:49.045Z,20.04
2022-09-06T09:08:26.558Z,20.10
2022-09-06T09:10:58.895Z,20.16
2022-09-06T09:13:30.258Z,20.25
2022-09-06T09:15:58.091Z,20.36
2022-09-06T09:18:30.490Z,20.47
2022-09-06T09:21:00.416Z,20.59
2022-09-06T09:23:29.987Z,20.70
2022-09-06T09:26:03.365Z,20.87
2022-09-06T09:28:31.245Z,21.13
2022-09-06T09:31:00.045Z,21.36
2022-09-06T09:33:36.935Z,21.55
2022-09-06T09:36:10.902Z,21.62
2022-09-06T09:38:44.340Z,21.76
2022-09-06T09:41:28.600Z,22.03
2022-09-06T09:44:04.178Z,22.31
2022-09-06T09:46:34.489Z,22.45
2022-09-06T09:49:08.595Z,22.58
2022-09-06T09:51:39.388Z,22.70
2022-09-06T09:54:09.036Z,22.76
2022-09-06T09:56:48.288Z,22.78
2022-09-06T09:59:25.226Z,22.90
2022-09-06T10:01:56.338Z,23.04
2022-09-06T10:04:46.975Z,23.26
2022-09-06T10:07:20.553Z,23.56
2022-09-06T10:09:49.842Z,23.84
2022-09-06T10:12:20.001Z,24.05
2022-09-06T10:14:49.770Z,24.11
2022-09-06T10:17:28.819Z,24.23
2022-09-06T10:19:57.301Z,24.43
2022-09-06T10:22:31.736Z,24.62
2022-09-06T10:25:32.279Z,24.83
2022-09-06T10:28:29.241Z,25.05
2022-09-06T10:31:20.106Z,25.28
2022-09-06T10:34:03.499Z,25.50
2022-09-06T10:36:35.998Z,25.74
2022-09-06T10:39:18.706Z,25.94
2022-09-06T10:41:59.661Z,25.89
2022-09-06T10:44:50.041Z,25.81
2022-09-06T10:47:19.179Z,25.84
2022-09-06T10:49:54.341Z,26.11
2022-09-06T10:52:26.349Z,26.38
2022-09-06T10:55:02.184Z,26.59
2022-09-06T11:00:24.089Z,26.73
2022-09-06T11:05:49.866Z,26.85
2022-09-06T11:11:20.805Z,26.89
2022-09-06T11:13:48.606Z,26.94
2022-09-06T11:16:22.726Z,27.14
2022-09-06T11:18:56.452Z,27.37
2022-09-06T11:21:46.549Z,27.57
2022-09-06T11:24:16.380Z,27.71
2022-09-06T11:26:58.780Z,27.90
2022-09-06T11:29:28.824Z,27.85
2022-09-06T11:34:54.675Z,27.66
2022-09-06T11:37:28.693Z,27.53
2022-09-06T11:43:14.028Z,27.33
2022-09-06T11:45:48.583Z,27.34
2022-09-06T11:48:37.676Z,27.58
2022-09-06T11:51:10.873Z,27.89
2022-09-06T11:54:13.042Z,28.29
2022-09-06T11:56:43.839Z,28.67
2022-09-06T11:59:34.678Z,28.77
2022-09-06T12:02:04.331Z,28.68
2022-09-06T12:05:09.921Z,28.70
2022-09-06T12:07:40.015Z,28.97
2022-09-06T12:10:40.128Z,29.07
2022-09-06T12:13:48.530Z,29.07
2022-09-06T12:16:19.315Z,29.32
2022-09-06T12:19:04.005Z,29.60
2022-09-06T12:21:52.384Z,29.74
2022-09-06T12:24:56.823Z,30.01
2022-09-06T12:27:27.235Z,30.14
2022-09-06T12:29:59.384Z,30.30
2022-09-06T12:32:36.759Z,30.29
2022-09-06T12:37:57.836Z,30.36
2022-09-06T12:40:27.631Z,30.41
2022-09-06T12:42:56.337Z,30.42
2022-09-06T12:45:27.568Z,30.40
2022-09-06T12:48:09.674Z,30.36
2022-09-06T12:50:37.869Z,30.36
2022-09-06T12:53:23.130Z,30.33
2022-09-06T12:56:05.214Z,30.51
2022-09-06T12:58:33.472Z,30.70
2022-09-06T13:01:07.786Z,30.83
2022-09-06T13:03:40.824Z,30.80
2022-09-06T13:06:12.244Z,30.85
2022-09-06T13:08:45.544Z,30.95
2022-09-06T13:11:16.290Z,31.03
2022-09-06T13:13:49.307Z,31.06
2022-09-06T13:16:22.351Z,30.98
2022-09-06T13:18:51.919Z,30.97
2022-09-06T13:21:28.731Z,31.01
2022-09-06T13:23:59.081Z,31.06
2022-09-06T13:26:34.615Z,31.24
2022-09-06T13:29:13.315Z,31.26
2022-09-06T13:31:46.535Z,31.03
2022-09-06T13:34:23.298Z,30.83
2022-09-06T13:36:52.951Z,30.87
2022-09-06T13:39:34.841Z,30.88
2022-09-06T13:42:05.789Z,30.84
2022-09-06T13:44:36.212Z,30.91
2022-09-06T13:47:04.686Z,30.84
2022-09-06T13:49:34.500Z,30.75
2022-09-06T13:52:04.692Z,30.75
2022-09-06T13:54:34.776Z,30.70
2022-09-06T13:57:02.908Z,30.74
2022-09-06T13:59:31.579Z,30.75
2022-09-06T14:02:02.926Z,30.80
2022-09-06T14:04:32.445Z,30.83
2022-09-06T14:07:01.533Z,30.89
2022-09-06T14:09:29.588Z,30.81
2022-09-06T14:11:57.682Z,30.70
2022-09-06T14:14:25.673Z,30.68
2022-09-06T14:16:54.080Z,30.74
2022-09-06T14:19:21.841Z,30.74
2022-09-06T14:21:49.702Z,30.70
2022-09-06T14:24:19.060Z,30.61
2022-09-06T14:26:47.236Z,30.51
2022-09-06T14:29:15.176Z,30.45
2022-09-06T14:31:42.892Z,30.52
2022-09-06T14:34:10.964Z,30.61
2022-09-06T14:36:38.710Z,30.57
2022-09-06T14:39:06.548Z,30.57
2022-09-06T14:41:36.362Z,30.45
2022-09-06T14:44:04.804Z,30.37
2022-09-06T14:46:32.726Z,30.33
2022-09-06T14:49:02.302Z,30.29
2022-09-06T14:51:31.107Z,30.27
2022-09-06T14:54:02.356Z,30.19
2022-09-06T14:56:30.362Z,30.01
2022-09-06T14:59:00.426Z,29.88
2022-09-06T15:01:34.121Z,29.80
2022-09-06T15:04:05.078Z,29.75
2022-09-06T15:06:35.013Z,29.69
2022-09-06T15:09:02.814Z,29.57
2022-09-06T15:11:34.691Z,29.47
2022-09-06T15:14:05.604Z,29.35
2022-09-06T15:16:34.290Z,29.33
2022-09-06T15:19:02.772Z,29.30
2022-09-06T15:21:31.514Z,29.14
2022-09-06T15:23:59.861Z,29.02
2022-09-06T15:26:27.510Z,28.87
2022-09-06T15:28:55.463Z,28.74
2022-09-06T15:31:24.550Z,28.59
2022-09-06T15:33:52.861Z,28.42
2022-09-06T15:36:21.829Z,28.26
2022-09-06T15:38:50.850Z,28.16
2022-09-06T15:41:20.846Z,28.06
2022-09-06T15:43:50.621Z,27.97
2022-09-06T15:46:22.167Z,27.89
2022-09-06T15:48:53.717Z,27.81
2022-09-06T15:51:22.175Z,27.71
2022-09-06T15:53:49.857Z,27.57
2022-09-06T15:56:18.915Z,27.42
2022-09-06T15:58:47.681Z,27.29
2022-09-06T16:01:17.253Z,27.16
2022-09-06T16:03:46.814Z,27.02
2022-09-06T16:06:26.863Z,26.86
2022-09-06T16:08:59.369Z,26.72
2022-09-06T16:11:28.171Z,26.59
2022-09-06T16:13:56.238Z,26.48
2022-09-06T16:16:24.145Z,26.38
2022-09-06T16:18:53.132Z,26.34
2022-09-06T16:21:24.751Z,26.28
2022-09-06T16:23:54.001Z,26.19
2022-09-06T16:26:25.005Z,26.09
2022-09-06T16:28:53.581Z,25.98
2022-09-06T16:31:22.289Z,25.92
2022-09-06T16:33:50.653Z,25.84
2022-09-06T16:36:19.516Z,25.75
2022-09-06T16:38:49.518Z,25.68
2022-09-06T16:41:20.640Z,25.58
2022-09-06T16:43:50.053Z,25.50
2022-09-06T16:46:18.307Z,25.43
2022-09-06T16:48:52.108Z,25.34
2022-09-06T16:51:20.733Z,25.22
2022-09-06T16:53:50.866Z,25.16
2022-09-06T16:56:20.328Z,25.09
2022-09-06T16:58:51.484Z,25.02
2022-09-06T17:01:20.039Z,24.94
2022-09-06T17:03:48.249Z,24.86
2022-09-06T17:06:16.539Z,24.79
2022-09-06T17:08:44.861Z,24.70
2022-09-06T17:11:16.208Z,24.62
2022-09-06T17:13:44.933Z,24.55
2022-09-06T17:16:30.481Z,24.49
2022-09-06T17:19:01.132Z,24.41
2022-09-06T17:21:30.263Z,24.35
2022-09-06T17:23:58.648Z,24.29
2022-09-06T17:26:27.724Z,24.22
2022-09-06T17:28:56.919Z,24.16
2022-09-06T17:31:26.069Z,24.12
2022-09-06T17:33:54.184Z,24.06
2022-09-06T17:36:24.236Z,24.01
2022-09-06T17:38:54.170Z,23.95
2022-09-06T17:41:25.711Z,23.87
2022-09-06T17:43:55.391Z,23.80
2022-09-06T17:46:28.447Z,23.73
2022-09-06T17:48:57.053Z,23.66
2022-09-06T17:51:25.863Z,23.58
2022-09-06T17:53:53.960Z,23.53
2022-09-06T17:56:22.591Z,23.47
2022-09-06T17:58:56.111Z,23.41
2022-09-06T18:01:25.670Z,23.34
2022-09-06T18:03:53.658Z,23.28
2022-09-06T18:06:23.606Z,23.22
2022-09-06T18:08:53.044Z,23.16
2022-09-06T18:11:23.417Z,23.09
2022-09-06T18:13:58.492Z,23.03
2022-09-06T18:16:27.580Z,22.96
2022-09-06T18:18:57.454Z,22.89
2022-09-06T18:21:27.436Z,22.84
2022-09-06T18:23:55.775Z,22.78
2022-09-06T18:26:24.520Z,22.72
2022-09-06T18:28:53.387Z,22.67
2022-09-06T18:31:24.437Z,22.63
2022-09-06T18:33:52.720Z,22.56
2022-09-06T18:36:21.113Z,22.50
2022-09-06T18:38:48.775Z,22.46
2022-09-06T18:41:30.995Z,22.41
2022-09-06T18:44:00.703Z,22.35
2022-09-06T18:46:30.603Z,22.31
2022-09-06T18:48:58.357Z,22.26
2022-09-06T18:51:26.285Z,22.20
2022-09-06T18:53:54.220Z,22.17
2022-09-06T18:56:21.875Z,22.11
2022-09-06T18:58:49.695Z,22.07
2022-09-06T19:01:20.127Z,22.02
2022-09-06T19:03:49.194Z,21.98
2022-09-06T19:06:19.743Z,21.93
2022-09-06T19:08:48.550Z,21.88
2022-09-06T19:11:18.790Z,21.82
2022-09-06T19:13:47.990Z,21.78
2022-09-06T19:16:16.064Z,21.74
2022-09-06T19:18:43.841Z,21.69
2022-09-06T19:21:14.286Z,21.65
2022-09-06T19:23:44.073Z,21.59
2022-09-06T19:26:16.848Z,21.56
2022-09-06T19:28:49.627Z,21.51
2022-09-06T19:31:18.429Z,21.46
2022-09-06T19:33:48.007Z,21.42
2022-09-06T19:36:18.255Z,21.37
2022-09-06T19:39:03.011Z,21.33
2022-09-06T19:41:32.911Z,21.29
2022-09-06T19:44:01.679Z,21.25
2022-09-06T19:46:29.456Z,21.22
2022-09-06T19:48:57.283Z,21.16
2022-09-06T19:51:26.274Z,21.14
2022-09-06T19:53:57.535Z,21.10
2022-09-06T19:56:27.224Z,21.06
2022-09-06T19:58:56.429Z,21.02
2022-09-06T20:01:25.504Z,20.97
2022-09-06T20:03:54.001Z,20.94
2022-09-06T20:06:22.414Z,20.90
2022-09-06T20:08:53.324Z,20.88
2022-09-06T20:11:23.169Z,20.84
2022-09-06T20:13:51.128Z,20.82
2022-09-06T20:16:20.860Z,20.78
2022-09-06T20:18:49.350Z,20.74
2022-09-06T20:21:18.528Z,20.71
2022-09-06T20:23:51.580Z,20.69
2022-09-06T20:26:20.018Z,20.64
2022-09-06T20:28:48.843Z,20.60
2022-09-06T20:31:18.233Z,20.58
2022-09-06T20:33:49.715Z,20.54
2022-09-06T20:36:18.692Z,20.50
2022-09-06T20:38:47.741Z,20.46
2022-09-06T20:41:18.397Z,20.42
2022-09-06T20:43:46.824Z,20.39
2022-09-06T20:46:16.777Z,20.35
2022-09-06T20:48:46.001Z,20.30
2022-09-06T20:51:15.649Z,20.27
2022-09-06T20:53:43.374Z,20.22
2022-09-06T20:56:13.030Z,20.20
2022-09-06T20:58:42.781Z,20.14
2022-09-06T21:01:15.237Z,20.13
2022-09-06T21:03:43.669Z,20.09
2022-09-06T21:06:13.303Z,20.03
2022-09-06T21:08:43.107Z,20.02
2022-09-06T21:11:11.725Z,19.97
2022-09-06T21:13:40.493Z,19.91
2022-09-06T21:16:09.977Z,19.88
2022-09-06T21:18:37.809Z,19.83
2022-09-06T21:21:07.844Z,19.80
2022-09-06T21:23:36.897Z,19.76
2022-09-06T21:26:06.571Z,19.74
2022-09-06T21:28:36.606Z,19.71
2022-09-06T21:31:08.135Z,19.67
2022-09-06T21:33:40.446Z,19.62
2022-09-06T21:36:09.721Z,19.58
2022-09-06T21:38:39.314Z,19.55
2022-09-06T21:41:08.540Z,19.51
2022-09-06T21:43:36.573Z,19.48
2022-09-06T21:46:04.959Z,19.44
2022-09-06T21:48:32.675Z,19.40
2022-09-06T21:51:01.641Z,19.37
2022-09-06T21:53:29.276Z,19.32
2022-09-06T21:56:00.434Z,19.28
2022-09-06T21:58:28.449Z,19.24
2022-09-06T22:00:59.192Z,19.21
2022-09-06T22:03:27.345Z,19.18
2022-09-06T22:05:55.680Z,19.13
2022-09-06T22:08:25.509Z,19.09
2022-09-06T22:10:53.242Z,19.07
2022-09-06T22:13:21.886Z,19.02
2022-09-06T22:15:49.566Z,18.99
2022-09-06T22:18:17.204Z,18.95
2022-09-06T22:20:44.862Z,18.91
2022-09-06T22:23:12.471Z,18.86
2022-09-06T22:25:42.905Z,18.83
2022-09-06T22:28:10.774Z,18.78
2022-09-06T22:30:39.267Z,18.74
2022-09-06T22:33:06.871Z,18.69
2022-09-06T22:35:34.869Z,18.63
2022-09-06T22:38:02.625Z,18.58
2022-09-06T22:40:30.257Z,18.54
2022-09-06T22:42:59.209Z,18.50
2022-09-06T22:45:26.873Z,18.45
2022-09-06T22:47:54.912Z,18.40
2022-09-06T22:50:22.578Z,18.35
2022-09-06T22:52:50.192Z,18.30
2022-09-06T22:55:18.257Z,18.26
2022-09-06T22:57:45.892Z,18.23
2022-09-06T23:00:15.853Z,18.21
2022-09-06T23:02:43.607Z,18.19
2022-09-06T23:05:11.246Z,18.16
2022-09-06T23:07:38.900Z,18.13
2022-09-06T23:10:07.523Z,18.11
2022-09-06T23:12:35.141Z,18.11
2022-09-06T23:15:02.844Z,18.09
2022-09-06T23:17:31.814Z,18.07
2022-09-06T23:19:59.989Z,18.06
2022-09-06T23:22:27.764Z,18.05
2022-09-06T23:24:55.397Z,18.03
2022-09-06T23:27:23.021Z,18.02
2022-09-06T23:29:50.797Z,18.01
2022-09-06T23:32:18.434Z,17.97
2022-09-06T23:34:47.846Z,17.96
2022-09-06T23:37:15.480Z,17.92
2022-09-06T23:39:43.202Z,17.89
2022-09-06T23:42:10.858Z,17.86
2022-09-06T23:44:38.525Z,17.84
2022-09-06T23:47:06.575Z,17.80
2022-09-06T23:49:34.248Z,17.77
2022-09-06T23:52:03.785Z,17.73
2022-09-06T23:54:31.421Z,17.71
2022-09-06T23:56:59.077Z,17.70
2022-09-06T23:59:26.743Z,17.68
